Time;durP1;ratioP1;P1;durP2;ratioP2;P2;SDS_P1;SDS_P2;PMS_P1;PMS_P2;Temp;Humidity;BMP_temperature;BMP_pressure;BME280_temperature;BME280_humidity;BME280_pressure;Samples;Min_cycle;Max_cycle;Signal;HPM_P1;HPM_P2
2023/04/09 00:00:17;;;;;;;15.30;10.68;;;7.70;99.90;;;;;;5064545;28;20086;-67
2023/04/09 00:02:44;;;;;;;19.73;11.85;;;7.60;99.90;;;;;;5068342;28;20515;-66
2023/04/09 00:05:12;;;;;;;15.02;10.23;;;7.60;99.90;;;;;;5068469;28;20515;-65
2023/04/09 00:07:40;;;;;;;15.55;10.50;;;7.60;99.90;;;;;;5069806;28;20048;-65
2023/04/09 00:10:10;;;;;;;17.05;11.18;;;7.60;99.90;;;;;;5070005;28;20542;-66
2023/04/09 00:12:37;;;;;;;17.70;11.60;;;7.50;99.90;;;;;;5068497;28;20055;-66
2023/04/09 00:15:05;;;;;;;14.85;10.70;;;7.50;99.90;;;;;;5069242;28;20522;-65
2023/04/09 00:17:35;;;;;;;15.75;10.13;;;7.50;99.90;;;;;;5060465;28;20045;-65
2023/04/09 00:20:03;;;;;;;16.17;11.18;;;7.50;99.90;;;;;;5063719;28;20098;-68
2023/04/09 00:22:30;;;;;;;16.40;11.38;;;7.50;99.90;;;;;;5068122;28;20040;-64
2023/04/09 00:24:57;;;;;;;14.10;10.43;;;7.40;99.90;;;;;;5065872;28;20082;-66
2023/04/09 00:27:25;;;;;;;16.20;10.38;;;7.40;99.90;;;;;;5069307;28;20199;-65
2023/04/09 00:29:55;;;;;;;16.40;11.48;;;7.40;99.90;;;;;;5069585;28;20463;-66
2023/04/09 00:32:22;;;;;;;14.70;10.63;;;7.40;99.90;;;;;;5069357;28;20179;-64
2023/04/09 00:34:50;;;;;;;15.32;10.80;;;7.40;99.90;;;;;;5068554;28;20044;-66
2023/04/09 00:37:18;;;;;;;17.20;11.75;;;7.40;99.90;;;;;;5069288;28;20491;-68
2023/04/09 00:39:46;;;;;;;16.48;10.93;;;7.30;99.90;;;;;;5074043;28;20033;-65
2023/04/09 00:42:13;;;;;;;15.88;10.38;;;7.40;99.90;;;;;;5071924;28;20521;-67
2023/04/09 00:44:40;;;;;;;14.27;10.25;;;7.40;99.90;;;;;;5078746;28;20032;-65
2023/04/09 00:47:08;;;;;;;14.93;10.90;;;7.40;99.90;;;;;;5054774;28;20041;-65
2023/04/09 00:49:35;;;;;;;17.83;11.48;;;7.40;99.90;;;;;;5064403;28;20037;-64
2023/04/09 00:52:03;;;;;;;17.15;10.38;;;7.40;99.90;;;;;;5067787;28;20052;-66
2023/04/09 00:54:31;;;;;;;16.52;11.02;;;7.30;99.90;;;;;;5073658;28;20044;-66
2023/04/09 00:56:59;;;;;;;16.88;10.88;;;7.40;99.90;;;;;;5071892;28;20116;-65
2023/04/09 00:59:27;;;;;;;15.60;10.43;;;7.40;99.90;;;;;;5071790;28;20037;-66
2023/04/09 01:01:54;;;;;;;16.50;10.90;;;7.40;99.90;;;;;;5072871;28;20036;-65
2023/04/09 01:04:23;;;;;;;18.75;10.73;;;7.40;99.90;;;;;;5072821;28;20054;-65
2023/04/09 01:06:57;;;;;;;17.58;11.40;;;7.40;99.90;;;;;;5073197;28;20574;-64
2023/04/09 01:10:08;;;;;;;16.10;11.07;;;7.30;99.90;;;;;;5055281;28;20452;-65
2023/04/09 01:12:55;;;;;;;19.83;12.43;;;7.30;99.90;;;;;;5057537;28;20037;-65
2023/04/09 01:15:30;;;;;;;15.90;10.85;;;7.40;99.90;;;;;;5071307;28;20183;-66
2023/04/09 01:18:14;;;;;;;19.00;11.93;;;7.30;99.90;;;;;;5071463;28;20064;-65
2023/04/09 01:20:56;;;;;;;15.95;10.88;;;7.30;99.90;;;;;;5072021;28;20044;-65
2023/04/09 01:23:54;;;;;;;15.63;11.00;;;7.30;99.90;;;;;;5061600;28;20045;-65
2023/04/09 01:26:50;;;;;;;17.92;11.15;;;7.30;99.90;;;;;;5070264;28;20523;-66
2023/04/09 01:29:20;;;;;;;18.27;11.52;;;7.30;99.90;;;;;;5071232;28;20040;-65
2023/04/09 01:31:49;;;;;;;19.52;11.52;;;7.30;99.90;;;;;;5071481;28;20036;-65
2023/04/09 01:34:18;;;;;;;18.35;11.25;;;7.30;99.90;;;;;;5054914;28;20109;-65
2023/04/09 01:36:54;;;;;;;18.95;11.55;;;7.30;99.90;;;;;;5071124;28;20043;-65
2023/04/09 01:39:22;;;;;;;18.20;11.75;;;7.30;99.90;;;;;;5059846;28;20044;-66
2023/04/09 01:41:50;;;;;;;17.40;10.65;;;7.30;99.90;;;;;;5064427;28;20040;-66
2023/04/09 01:44:18;;;;;;;16.55;11.00;;;7.30;99.90;;;;;;5070733;28;20059;-66
2023/04/09 01:46:47;;;;;;;15.73;11.27;;;7.30;99.90;;;;;;5071383;28;20466;-65
2023/04/09 01:49:15;;;;;;;16.15;10.88;;;7.30;99.90;;;;;;5069351;28;20068;-65
2023/04/09 01:51:43;;;;;;;16.45;10.90;;;7.30;99.90;;;;;;5065493;28;20048;-64
2023/04/09 01:54:10;;;;;;;19.67;11.65;;;7.30;99.90;;;;;;5069903;28;20048;-65
2023/04/09 01:56:42;;;;;;;17.05;12.00;;;7.30;99.90;;;;;;5065914;28;20041;-65
2023/04/09 01:59:09;;;;;;;16.63;11.05;;;7.30;99.90;;;;;;5045687;28;20068;-65
2023/04/09 02:01:57;;;;;;;16.95;11.93;;;7.30;99.90;;;;;;5070047;28;20108;-64
2023/04/09 02:04:39;;;;;;;17.35;11.55;;;7.30;99.90;;;;;;5068559;28;20119;-65
2023/04/09 02:07:12;;;;;;;;;;;7.20;99.90;;;;;;5064983;28;20451;-65
2023/04/09 02:09:42;;;;;;;13.55;10.02;;;7.20;99.90;;;;;;5069967;28;19921;-65
2023/04/09 02:12:13;;;;;;;16.02;11.35;;;7.20;99.90;;;;;;5069829;28;20507;-65
2023/04/09 02:14:41;;;;;;;17.80;11.35;;;7.20;99.90;;;;;;5070382;28;20395;-65
2023/04/09 02:17:08;;;;;;;16.35;11.13;;;7.20;99.90;;;;;;5066417;28;20041;-64
2023/04/09 02:19:46;;;;;;;17.42;12.30;;;7.10;99.90;;;;;;5069820;28;20039;-65
2023/04/09 02:22:14;;;;;;;17.83;12.10;;;7.10;99.90;;;;;;5066762;28;20041;-66
2023/04/09 02:24:42;;;;;;;16.75;11.73;;;7.00;99.90;;;;;;5063572;28;20060;-64
2023/04/09 02:27:09;;;;;;;15.05;10.45;;;7.00;99.90;;;;;;5066719;28;20048;-66
2023/04/09 02:29:38;;;;;;;15.40;11.02;;;6.90;99.90;;;;;;5064190;28;20038;-64
2023/04/09 02:32:06;;;;;;;17.33;11.63;;;6.90;99.90;;;;;;5067271;28;20063;-66
2023/04/09 02:34:33;;;;;;;19.05;12.50;;;6.80;99.90;;;;;;5065289;28;20064;-64
2023/04/09 02:37:01;;;;;;;17.65;11.63;;;6.80;99.90;;;;;;5069411;28;20036;-65
2023/04/09 02:39:28;;;;;;;17.13;11.55;;;6.70;99.90;;;;;;5054819;28;20087;-64
2023/04/09 02:41:56;;;;;;;15.75;11.48;;;6.70;99.90;;;;;;5061335;28;20057;-64
2023/04/09 02:44:26;;;;;;;16.05;11.35;;;6.60;99.90;;;;;;5066157;28;20499;-65
2023/04/09 02:46:54;;;;;;;18.90;12.65;;;6.60;99.90;;;;;;5065264;28;20040;-64
2023/04/09 02:49:22;;;;;;;18.52;11.77;;;6.50;99.90;;;;;;5067149;28;20056;-64
2023/04/09 02:51:49;;;;;;;15.15;11.05;;;6.40;99.90;;;;;;5070608;28;20032;-64
2023/04/09 02:54:16;;;;;;;18.65;12.55;;;6.30;99.90;;;;;;5065611;28;20041;-65
2023/04/09 02:56:44;;;;;;;16.60;11.05;;;6.20;99.90;;;;;;5062633;28;20045;-64
2023/04/09 02:59:11;;;;;;;16.15;11.43;;;6.10;99.90;;;;;;5067749;28;20117;-63
2023/04/09 03:01:38;;;;;;;16.50;11.18;;;6.00;99.90;;;;;;5068389;28;20488;-64
2023/04/09 03:04:06;;;;;;;17.05;10.85;;;5.90;99.90;;;;;;5069397;28;20556;-63
2023/04/09 03:06:33;;;;;;;18.17;12.90;;;5.80;99.90;;;;;;5071370;28;20036;-63
2023/04/09 03:09:01;;;;;;;18.15;12.05;;;5.60;99.90;;;;;;5064427;28;20495;-65
2023/04/09 03:11:28;;;;;;;19.23;13.20;;;5.60;99.90;;;;;;5069886;28;20540;-64
2023/04/09 03:13:55;;;;;;;18.85;11.55;;;5.50;99.90;;;;;;5064890;28;20047;-65
2023/04/09 03:16:24;;;;;;;17.33;11.48;;;5.40;99.90;;;;;;5071272;28;20041;-65
2023/04/09 03:18:51;;;;;;;20.30;12.57;;;5.40;99.90;;;;;;5053260;28;20051;-64
2023/04/09 03:21:19;;;;;;;18.65;12.15;;;5.20;99.90;;;;;;5070690;28;20036;-64
2023/04/09 03:23:49;;;;;;;17.63;12.15;;;5.20;99.90;;;;;;5063784;28;20083;-66
2023/04/09 03:26:16;;;;;;;17.45;11.80;;;5.10;99.90;;;;;;5069301;28;20040;-65
2023/04/09 03:28:48;;;;;;;20.23;12.93;;;5.00;99.90;;;;;;5067292;28;20047;-65
2023/04/09 03:31:16;;;;;;;18.35;11.52;;;5.00;99.90;;;;;;5067586;28;20040;-64
2023/04/09 03:33:45;;;;;;;21.52;12.18;;;5.00;99.90;;;;;;5076555;28;20457;-65
2023/04/09 03:36:12;;;;;;;18.50;12.38;;;4.90;99.90;;;;;;5076795;28;20043;-64
2023/04/09 03:38:55;;;;;;;20.10;12.75;;;4.90;99.90;;;;;;5081211;28;20059;-65
2023/04/09 03:41:32;;;;;;;20.98;13.27;;;4.90;99.90;;;;;;5060253;28;20041;-64
2023/04/09 03:44:03;;;;;;;20.63;13.45;;;4.80;99.90;;;;;;5069162;28;20037;-66
2023/04/09 03:46:39;;;;;;;22.80;14.02;;;4.80;99.90;;;;;;5089446;28;20028;-66
2023/04/09 03:49:11;;;;;;;17.95;12.15;;;4.80;99.90;;;;;;5069931;28;20127;-64
2023/04/09 03:51:43;;;;;;;20.17;12.50;;;4.80;99.90;;;;;;5067528;28;20127;-66
2023/04/09 03:54:11;;;;;;;23.00;14.43;;;4.70;99.90;;;;;;5064919;28;20041;-64
2023/04/09 03:56:39;;;;;;;18.58;12.23;;;4.70;99.90;;;;;;5063517;28;20537;-65
2023/04/09 03:59:10;;;;;;;22.02;14.15;;;4.70;99.90;;;;;;5064928;28;21102;-65
2023/04/09 04:01:40;;;;;;;21.73;12.88;;;4.70;99.90;;;;;;5067924;28;20041;-65
2023/04/09 04:04:08;;;;;;;22.77;14.05;;;4.60;99.90;;;;;;5066251;28;20054;-64
2023/04/09 04:06:50;;;;;;;20.90;12.93;;;4.60;99.90;;;;;;5064259;28;20598;-66
2023/04/09 04:09:27;;;;;;;22.13;13.15;;;4.60;99.90;;;;;;5062559;28;20040;-64
2023/04/09 04:12:00;;;;;;;21.70;13.27;;;4.60;99.90;;;;;;5065074;28;20041;-65
2023/04/09 04:14:48;;;;;;;21.00;13.55;;;4.50;99.90;;;;;;5061950;28;20143;-64
2023/04/09 04:17:30;;;;;;;22.20;13.77;;;4.50;99.90;;;;;;5051018;28;20043;-64
2023/04/09 04:19:58;;;;;;;22.80;13.93;;;4.50;99.90;;;;;;5068813;28;20340;-64
2023/04/09 04:22:26;;;;;;;23.00;13.98;;;4.50;99.90;;;;;;5050365;28;20033;-65
2023/04/09 04:24:57;;;;;;;24.85;14.65;;;4.50;99.90;;;;;;5067540;28;20047;-65
2023/04/09 04:27:25;;;;;;;20.33;13.23;;;4.50;99.90;;;;;;5068188;28;20086;-64
2023/04/09 04:29:52;;;;;;;21.17;13.65;;;4.40;99.90;;;;;;5068475;28;20048;-66
2023/04/09 04:32:32;;;;;;;19.55;13.52;;;4.40;99.90;;;;;;5061064;28;20048;-64
2023/04/09 04:35:04;;;;;;;20.02;13.15;;;4.40;99.90;;;;;;5067606;28;20128;-64
2023/04/09 04:37:31;;;;;;;20.75;13.10;;;4.40;99.90;;;;;;5072469;28;20047;-66
2023/04/09 04:40:01;;;;;;;19.60;12.48;;;4.30;99.90;;;;;;5058986;28;20044;-65
2023/04/09 04:42:30;;;;;;;18.50;12.48;;;4.30;99.90;;;;;;5064676;28;20441;-68
2023/04/09 04:45:00;;;;;;;19.52;13.43;;;4.30;99.90;;;;;;5058327;28;20043;-64
2023/04/09 04:47:42;;;;;;;20.02;12.30;;;4.30;99.90;;;;;;5043017;28;20550;-63
2023/04/09 04:50:10;;;;;;;18.77;12.50;;;4.30;99.90;;;;;;5063702;28;20128;-64
2023/04/09 04:52:50;;;;;;;17.90;12.48;;;4.30;99.90;;;;;;5067766;28;20414;-64
2023/04/09 04:55:19;;;;;;;18.42;12.55;;;4.30;99.90;;;;;;5068046;28;20071;-63
2023/04/09 04:57:51;;;;;;;20.40;13.70;;;4.30;99.90;;;;;;5046869;28;20114;-64
2023/04/09 05:00:20;;;;;;;19.67;12.82;;;4.30;99.90;;;;;;5065917;28;20147;-64
2023/04/09 05:02:48;;;;;;;21.98;14.25;;;4.30;99.90;;;;;;5073286;28;20036;-64
2023/04/09 05:05:20;;;;;;;20.27;13.43;;;4.30;99.90;;;;;;5062938;28;20410;-65
2023/04/09 05:07:51;;;;;;;;;;;4.40;99.90;;;;;;5060479;28;20466;-64
2023/04/09 05:10:20;;;;;;;22.73;13.35;;;4.40;99.90;;;;;;5066391;28;20019;-69
2023/04/09 05:12:47;;;;;;;19.52;13.13;;;4.40;99.90;;;;;;5056789;28;20089;-64
2023/04/09 05:15:24;;;;;;;19.63;12.57;;;4.50;99.90;;;;;;5066704;28;20071;-64
2023/04/09 05:17:51;;;;;;;21.23;12.95;;;4.50;99.90;;;;;;5059494;28;20044;-65
2023/04/09 05:20:19;;;;;;;20.55;13.27;;;4.50;99.90;;;;;;5069377;28;20041;-64
2023/04/09 05:23:09;;;;;;;19.13;12.90;;;4.60;99.90;;;;;;5072387;28;20115;-63
2023/04/09 05:25:41;;;;;;;20.92;13.63;;;4.70;99.90;;;;;;5063332;28;20043;-65
2023/04/09 05:28:20;;;;;;;21.65;13.63;;;4.70;99.90;;;;;;5085469;28;20040;-65
2023/04/09 05:30:54;;;;;;;22.27;13.10;;;4.80;99.90;;;;;;5062401;28;20040;-64
2023/04/09 05:33:22;;;;;;;21.52;13.77;;;4.80;99.90;;;;;;5067771;28;20399;-64
2023/04/09 05:35:50;;;;;;;21.15;13.75;;;4.90;99.90;;;;;;5065662;28;20484;-66
2023/04/09 05:38:18;;;;;;;20.08;12.82;;;4.90;99.90;;;;;;5067194;28;20123;-65
2023/04/09 05:40:53;;;;;;;21.92;13.95;;;4.90;99.90;;;;;;5069258;28;20037;-66
2023/04/09 05:43:21;;;;;;;20.33;13.45;;;5.00;99.90;;;;;;5060654;28;20381;-65
2023/04/09 05:45:48;;;;;;;19.85;12.82;;;5.00;99.90;;;;;;5063394;28;20420;-66
2023/04/09 05:48:17;;;;;;;20.30;13.40;;;5.10;99.90;;;;;;5041583;28;20558;-64
2023/04/09 05:50:51;;;;;;;18.55;12.63;;;5.20;99.90;;;;;;5065568;28;20040;-64
2023/04/09 05:53:24;;;;;;;19.52;13.88;;;5.20;99.90;;;;;;5051977;28;20064;-65
2023/04/09 05:55:52;;;;;;;19.25;13.23;;;5.30;99.90;;;;;;5069186;28;20479;-67
2023/04/09 05:58:23;;;;;;;19.50;12.93;;;5.30;99.90;;;;;;5068333;28;20045;-65
2023/04/09 06:00:51;;;;;;;20.10;14.25;;;5.40;99.90;;;;;;5053979;28;20037;-65
2023/04/09 06:03:19;;;;;;;23.08;13.77;;;5.40;99.90;;;;;;5069290;28;20143;-64
2023/04/09 06:05:47;;;;;;;19.73;13.30;;;5.50;99.90;;;;;;5070684;28;20048;-64
2023/04/09 06:08:15;;;;;;;23.80;15.88;;;5.50;99.90;;;;;;5069807;28;20491;-66
2023/04/09 06:10:42;;;;;;;20.67;14.50;;;5.50;99.90;;;;;;5070716;28;20049;-64
2023/04/09 06:13:09;;;;;;;21.30;14.05;;;5.60;99.90;;;;;;5069653;28;20044;-65
2023/04/09 06:15:37;;;;;;;22.27;15.07;;;5.60;99.90;;;;;;5071352;28;20052;-66
2023/04/09 06:18:05;;;;;;;22.73;14.40;;;5.60;99.90;;;;;;5069961;28;20483;-66
2023/04/09 06:20:33;;;;;;;21.63;15.00;;;5.80;99.90;;;;;;5071498;28;20068;-66
2023/04/09 06:23:00;;;;;;;25.05;16.65;;;5.80;99.90;;;;;;5068578;28;20057;-65
2023/04/09 06:25:27;;;;;;;25.17;16.50;;;5.80;99.90;;;;;;5064822;28;20036;-65
2023/04/09 06:27:55;;;;;;;27.33;17.88;;;5.90;99.90;;;;;;5070574;28;20128;-66
2023/04/09 06:30:22;;;;;;;23.30;15.93;;;6.00;99.90;;;;;;5070420;28;20079;-65
2023/04/09 06:32:50;;;;;;;25.77;17.52;;;6.00;99.90;;;;;;5070261;28;20044;-64
2023/04/09 06:35:21;;;;;;;23.40;15.77;;;6.10;99.90;;;;;;5070921;28;20047;-66
2023/04/09 06:37:49;;;;;;;23.80;16.42;;;6.20;99.90;;;;;;5063312;28;20067;-67
2023/04/09 06:40:16;;;;;;;24.63;16.83;;;6.30;99.90;;;;;;5064255;28;20040;-64
2023/04/09 06:42:46;;;;;;;26.77;17.83;;;6.40;99.90;;;;;;5070323;28;20033;-65
2023/04/09 06:45:22;;;;;;;27.00;16.60;;;6.50;99.90;;;;;;5076286;28;20082;-67
2023/04/09 06:47:49;;;;;;;25.10;16.42;;;6.60;99.90;;;;;;5070460;28;20032;-67
2023/04/09 06:50:16;;;;;;;24.50;16.58;;;6.60;99.90;;;;;;5070447;28;20040;-65
2023/04/09 06:52:44;;;;;;;25.63;17.55;;;6.70;99.90;;;;;;5068727;28;20045;-65
2023/04/09 06:55:11;;;;;;;24.63;17.20;;;6.80;99.90;;;;;;5070667;28;20507;-65
2023/04/09 06:57:39;;;;;;;27.30;17.73;;;6.80;99.90;;;;;;5063514;28;20047;-64
2023/04/09 07:00:07;;;;;;;26.45;17.63;;;6.90;99.90;;;;;;5069710;28;20038;-65
2023/04/09 07:02:38;;;;;;;25.48;16.65;;;7.00;99.90;;;;;;5069699;28;20422;-65
2023/04/09 07:05:08;;;;;;;25.83;17.52;;;7.10;99.90;;;;;;5066987;28;20491;-65
2023/04/09 07:07:35;;;;;;;28.45;18.38;;;7.10;99.90;;;;;;5060668;28;20063;-68
2023/04/09 07:10:03;;;;;;;25.10;16.55;;;7.20;99.90;;;;;;5060698;28;20052;-65
2023/04/09 07:12:33;;;;;;;24.25;17.33;;;7.20;99.90;;;;;;5068654;28;20458;-68
2023/04/09 07:15:03;;;;;;;25.70;18.02;;;7.30;99.90;;;;;;5062553;28;20041;-64
2023/04/09 07:17:31;;;;;;;27.50;18.15;;;7.40;99.90;;;;;;5062238;28;20041;-65
2023/04/09 07:19:58;;;;;;;26.75;17.90;;;7.40;99.90;;;;;;5070262;28;20044;-65
2023/04/09 07:22:28;;;;;;;28.30;18.70;;;7.50;99.90;;;;;;5069559;28;20436;-65
2023/04/09 07:24:56;;;;;;;25.05;17.08;;;7.60;99.90;;;;;;5068090;28;20044;-66
2023/04/09 07:27:28;;;;;;;32.63;20.25;;;7.70;99.90;;;;;;5067449;28;20036;-69
2023/04/09 07:29:58;;;;;;;28.85;19.38;;;7.80;99.90;;;;;;5069325;28;20416;-66
2023/04/09 07:32:29;;;;;;;26.67;18.23;;;7.90;99.90;;;;;;5068919;28;20048;-64
2023/04/09 07:34:58;;;;;;;29.70;19.45;;;8.00;99.90;;;;;;5065161;28;20464;-64
2023/04/09 07:37:26;;;;;;;26.67;18.50;;;8.10;99.90;;;;;;5067109;28;20052;-65
2023/04/09 07:39:53;;;;;;;28.48;18.83;;;8.20;99.90;;;;;;5065726;28;20395;-64
2023/04/09 07:42:21;;;;;;;26.85;18.50;;;8.40;99.90;;;;;;5055247;28;20036;-65
2023/04/09 07:44:48;;;;;;;28.40;18.52;;;8.50;99.90;;;;;;5054909;28;20051;-66
2023/04/09 07:47:16;;;;;;;28.50;19.15;;;8.60;99.90;;;;;;5059344;28;20041;-66
2023/04/09 07:49:43;;;;;;;28.77;18.95;;;8.70;99.90;;;;;;5060183;28;20099;-68
2023/04/09 07:52:10;;;;;;;26.85;19.00;;;8.70;99.90;;;;;;5061665;28;20629;-67
2023/04/09 07:54:38;;;;;;;27.17;18.83;;;8.80;99.90;;;;;;5057600;28;20407;-65
2023/04/09 07:57:06;;;;;;;28.55;19.75;;;8.90;99.90;;;;;;5060718;28;20080;-67
2023/04/09 07:59:34;;;;;;;27.02;19.10;;;9.00;99.90;;;;;;5069287;28;20513;-66
2023/04/09 08:02:01;;;;;;;30.17;20.65;;;9.10;99.90;;;;;;5067255;28;20446;-66
2023/04/09 08:04:29;;;;;;;28.45;18.92;;;9.30;99.90;;;;;;5062150;28;20428;-66
2023/04/09 08:06:56;;;;;;;28.58;19.00;;;9.30;99.90;;;;;;5058897;28;20048;-67
2023/04/09 08:09:23;;;;;;;26.60;18.35;;;9.40;99.90;;;;;;5067272;28;20149;-66
2023/04/09 08:11:50;;;;;;;25.52;18.73;;;9.50;99.90;;;;;;5064564;28;20502;-66
2023/04/09 08:14:18;;;;;;;26.92;19.63;;;9.60;99.90;;;;;;5066599;28;20044;-67
2023/04/09 08:16:46;;;;;;;25.80;18.13;;;9.70;99.90;;;;;;5063318;28;20471;-66
2023/04/09 08:19:15;;;;;;;25.58;18.70;;;9.80;99.90;;;;;;5065464;28;20045;-67
2023/04/09 08:21:43;;;;;;;24.92;18.23;;;9.90;99.90;;;;;;5060797;28;20044;-65
2023/04/09 08:24:11;;;;;;;25.52;17.88;;;10.00;99.90;;;;;;5064002;28;20127;-66
2023/04/09 08:26:39;;;;;;;22.73;17.05;;;10.10;99.90;;;;;;5063450;28;20036;-68
2023/04/09 08:29:08;;;;;;;26.48;19.33;;;10.20;99.90;;;;;;5068598;28;20443;-67
2023/04/09 08:31:36;;;;;;;25.02;18.17;;;10.30;99.90;;;;;;5063652;28;20043;-66
2023/04/09 08:34:04;;;;;;;23.00;17.02;;;10.30;99.90;;;;;;5065090;28;20051;-67
2023/04/09 08:36:33;;;;;;;25.52;17.13;;;10.40;99.90;;;;;;5063588;28;20048;-67
2023/04/09 08:39:01;;;;;;;20.90;15.52;;;10.50;99.90;;;;;;5053021;28;20159;-67
2023/04/09 08:41:29;;;;;;;22.98;17.33;;;10.60;99.90;;;;;;5060795;28;20046;-67
2023/04/09 08:43:57;;;;;;;26.38;18.83;;;10.80;99.90;;;;;;5077493;28;20383;-68
2023/04/09 08:46:26;;;;;;;23.63;16.77;;;10.90;99.90;;;;;;5066555;28;20055;-66
2023/04/09 08:48:54;;;;;;;22.25;15.48;;;10.90;99.90;;;;;;5066744;28;20037;-66
2023/04/09 08:51:23;;;;;;;25.10;17.98;;;10.90;99.90;;;;;;5067558;28;20158;-66
2023/04/09 08:53:57;;;;;;;25.13;17.35;;;11.10;99.90;;;;;;5066099;28;20049;-66
2023/04/09 08:56:28;;;;;;;20.25;14.82;;;11.10;99.90;;;;;;5068339;28;20048;-66
2023/04/09 08:58:55;;;;;;;20.33;14.43;;;11.20;99.90;;;;;;5068817;28;20131;-67
2023/04/09 09:01:28;;;;;;;19.35;15.43;;;11.30;99.90;;;;;;5065574;28;20041;-68
2023/04/09 09:04:03;;;;;;;18.95;14.57;;;11.30;99.90;;;;;;5072246;28;20048;-67
2023/04/09 09:06:35;;;;;;;21.00;15.57;;;11.40;99.90;;;;;;5069303;28;20298;-67
2023/04/09 09:09:05;;;;;;;20.98;16.05;;;11.60;99.90;;;;;;5070932;28;20043;-67
2023/04/09 09:11:33;;;;;;;20.20;16.25;;;11.80;99.90;;;;;;5068865;28;20510;-66
2023/04/09 09:14:08;;;;;;;19.50;15.02;;;12.00;99.90;;;;;;5070951;28;20044;-67
2023/04/09 09:16:43;;;;;;;20.15;15.15;;;12.00;99.90;;;;;;5054996;28;20048;-67
2023/04/09 09:19:34;;;;;;;20.92;15.20;;;12.20;99.90;;;;;;5068907;28;20090;-67
2023/04/09 09:22:03;;;;;;;21.50;15.73;;;12.20;99.90;;;;;;5056663;28;20495;-66
2023/04/09 09:24:32;;;;;;;19.90;14.35;;;12.30;99.90;;;;;;5073249;28;20036;-67
2023/04/09 09:27:01;;;;;;;18.58;14.65;;;12.30;99.90;;;;;;5070124;28;20114;-67
2023/04/09 09:29:29;;;;;;;21.85;16.13;;;12.40;99.90;;;;;;5070485;28;20041;-67
2023/04/09 09:31:59;;;;;;;22.33;16.30;;;12.40;99.90;;;;;;5057913;28;20080;-67
2023/04/09 09:34:29;;;;;;;;;;;12.40;99.90;;;;;;5063896;28;20511;-67
2023/04/09 09:37:00;;;;;;;20.13;14.85;;;12.40;99.90;;;;;;5071280;28;19963;-67
2023/04/09 09:39:44;;;;;;;19.42;14.40;;;12.50;99.90;;;;;;5068063;28;20396;-67
2023/04/09 09:42:17;;;;;;;21.90;15.05;;;12.50;99.90;;;;;;5068945;28;20056;-67
2023/04/09 09:44:48;;;;;;;21.83;16.20;;;12.80;99.90;;;;;;5052966;28;20466;-67
2023/04/09 09:47:23;;;;;;;21.02;15.98;;;13.00;99.90;;;;;;5062157;28;20037;-67
2023/04/09 09:49:54;;;;;;;18.75;14.27;;;13.00;99.90;;;;;;5049616;28;20044;-68
2023/04/09 09:52:27;;;;;;;21.08;16.45;;;12.90;99.90;;;;;;5062195;28;20460;-66
2023/04/09 09:54:58;;;;;;;20.80;15.10;;;13.30;99.90;;;;;;5068096;28;20060;-67
2023/04/09 09:57:29;;;;;;;22.20;16.60;;;13.50;99.90;;;;;;5069304;28;20452;-66
2023/04/09 10:00:02;;;;;;;18.45;14.02;;;13.70;99.90;;;;;;5071276;28;20563;-66
2023/04/09 10:02:46;;;;;;;17.58;14.00;;;13.80;99.90;;;;;;5066174;28;20569;-67
2023/04/09 10:05:15;;;;;;;20.13;15.68;;;13.90;99.90;;;;;;5071120;28;20127;-67
2023/04/09 10:07:43;;;;;;;22.30;16.48;;;13.80;99.90;;;;;;5070541;28;20147;-67
2023/04/09 10:10:11;;;;;;;18.92;14.10;;;13.90;99.90;;;;;;5068819;28;20046;-66
2023/04/09 10:12:40;;;;;;;18.42;13.88;;;13.90;99.90;;;;;;5052166;28;20054;-67
2023/04/09 10:15:09;;;;;;;16.45;13.23;;;14.20;99.90;;;;;;5069707;28;20045;-67
2023/04/09 10:17:37;;;;;;;20.33;14.80;;;14.50;99.90;;;;;;5069378;28;20052;-67
2023/04/09 10:20:25;;;;;;;18.20;13.05;;;14.80;99.90;;;;;;5070631;28;20044;-68
2023/04/09 10:22:53;;;;;;;17.23;13.38;;;15.20;99.90;;;;;;5065234;28;20531;-68
2023/04/09 10:25:21;;;;;;;17.80;13.35;;;15.60;99.90;;;;;;5071034;28;20526;-67
2023/04/09 10:28:01;;;;;;;14.82;12.73;;;15.90;99.90;;;;;;5069023;28;20036;-67
2023/04/09 10:30:36;;;;;;;17.42;14.13;;;16.10;99.90;;;;;;5070229;28;20071;-67
2023/04/09 10:33:11;;;;;;;16.98;13.63;;;16.20;99.90;;;;;;5068720;28;20048;-68
2023/04/09 10:35:39;;;;;;;16.73;13.25;;;16.00;99.90;;;;;;5062771;28;20455;-67
2023/04/09 10:38:08;;;;;;;16.20;13.13;;;16.20;99.90;;;;;;5068090;28;20056;-68
2023/04/09 10:40:48;;;;;;;16.77;13.32;;;16.40;99.90;;;;;;5070314;28;20392;-68
2023/04/09 10:43:20;;;;;;;14.20;11.98;;;16.60;99.90;;;;;;5069507;28;20168;-68
2023/04/09 10:45:52;;;;;;;14.80;11.82;;;16.80;99.90;;;;;;5069451;28;20290;-68
2023/04/09 10:48:24;;;;;;;13.70;11.80;;;16.80;99.90;;;;;;5070027;28;20048;-68
2023/04/09 10:50:52;;;;;;;15.30;11.80;;;17.00;99.90;;;;;;5070242;28;20155;-67
2023/04/09 10:53:23;;;;;;;15.43;11.93;;;16.90;99.90;;;;;;5069196;28;20114;-68
2023/04/09 10:55:52;;;;;;;12.07;10.18;;;16.70;99.90;;;;;;5069065;28;20487;-67
2023/04/09 10:58:19;;;;;;;12.77;10.88;;;15.90;99.90;;;;;;5065727;28;20475;-64
2023/04/09 11:00:48;;;;;;;12.80;10.25;;;15.90;99.90;;;;;;5068982;28;20493;-67
2023/04/09 11:03:24;;;;;;;9.60;8.32;;;15.90;99.90;;;;;;5067394;28;20072;-66
2023/04/09 11:05:56;;;;;;;8.05;7.20;;;16.30;97.40;;;;;;5068601;28;20036;-67
2023/04/09 11:08:29;;;;;;;8.38;7.15;;;16.70;95.40;;;;;;5069356;28;20063;-65
2023/04/09 11:10:58;;;;;;;10.23;8.73;;;17.10;93.10;;;;;;5070029;28;20048;-65
2023/04/09 11:13:26;;;;;;;10.05;8.75;;;17.70;93.20;;;;;;5067962;28;20052;-67
2023/04/09 11:15:55;;;;;;;10.35;8.80;;;18.40;93.50;;;;;;5067962;28;20537;-66
2023/04/09 11:18:27;;;;;;;10.90;9.40;;;18.70;92.90;;;;;;5066135;28;20602;-64
2023/04/09 11:20:59;;;;;;;12.50;9.77;;;19.30;92.30;;;;;;5063411;28;20148;-65
2023/04/09 11:23:27;;;;;;;10.38;9.27;;;19.30;90.50;;;;;;5066559;28;20048;-65
2023/04/09 11:25:55;;;;;;;11.27;9.23;;;19.10;90.30;;;;;;5069947;28;20386;-66
2023/04/09 11:28:23;;;;;;;9.73;8.38;;;19.50;90.20;;;;;;5063748;28;20037;-66
2023/04/09 11:30:51;;;;;;;9.55;8.30;;;19.70;87.70;;;;;;5068350;28;20048;-65
2023/04/09 11:33:19;;;;;;;10.50;8.70;;;19.40;85.80;;;;;;5062718;28;20048;-66
2023/04/09 11:35:47;;;;;;;9.57;8.55;;;19.80;85.50;;;;;;5069525;28;20048;-66
2023/04/09 11:38:15;;;;;;;11.00;9.32;;;19.60;85.10;;;;;;5066914;28;20460;-66
2023/04/09 11:40:50;;;;;;;8.38;7.47;;;20.20;84.50;;;;;;5065147;28;20079;-65
2023/04/09 11:43:19;;;;;;;8.90;8.00;;;20.20;82.50;;;;;;5062574;28;20045;-67
2023/04/09 11:45:48;;;;;;;9.60;8.02;;;20.50;81.50;;;;;;5069099;28;20514;-67
2023/04/09 11:48:20;;;;;;;9.88;8.35;;;20.60;80.60;;;;;;5069119;28;20474;-65
2023/04/09 11:50:48;;;;;;;9.43;8.40;;;20.70;81.10;;;;;;5067133;28;20047;-68
2023/04/09 11:53:20;;;;;;;11.25;9.32;;;21.10;80.30;;;;;;5068402;28;20180;-65
2023/04/09 11:55:51;;;;;;;;;;;21.30;79.50;;;;;;5064399;28;20226;-65
2023/04/09 11:58:25;;;;;;;9.35;8.35;;;20.50;79.60;;;;;;5066515;28;19924;-64
2023/04/09 12:00:58;;;;;;;9.55;8.55;;;20.10;79.80;;;;;;5056952;28;20072;-65
2023/04/09 12:03:31;;;;;;;9.27;7.78;;;19.40;80.80;;;;;;5067464;28;20049;-65
2023/04/09 12:06:01;;;;;;;9.32;8.23;;;19.80;81.30;;;;;;5068516;28;20139;-65
2023/04/09 12:08:30;;;;;;;9.73;8.20;;;20.60;82.00;;;;;;5068366;28;20044;-66
2023/04/09 12:11:10;;;;;;;10.25;8.57;;;21.20;79.10;;;;;;5063645;28;20048;-66
2023/04/09 12:13:47;;;;;;;10.18;8.73;;;22.00;76.90;;;;;;5059429;28;20147;-65
2023/04/09 12:16:19;;;;;;;9.32;8.32;;;22.60;75.60;;;;;;5064230;28;20098;-68
2023/04/09 12:18:49;;;;;;;10.10;8.85;;;22.50;74.00;;;;;;5066363;28;20044;-65
2023/04/09 12:21:16;;;;;;;9.55;8.10;;;22.70;74.20;;;;;;5067662;28;20550;-68
2023/04/09 12:23:45;;;;;;;10.60;9.38;;;22.20;73.00;;;;;;5066687;28;20093;-67
2023/04/09 12:26:13;;;;;;;10.50;7.90;;;21.70;74.00;;;;;;5068329;28;20426;-68
2023/04/09 12:28:40;;;;;;;10.68;8.05;;;22.40;76.10;;;;;;5068530;28;20068;-66
2023/04/09 12:31:11;;;;;;;9.68;8.68;;;22.40;72.50;;;;;;5064869;28;20348;-66
2023/04/09 12:33:39;;;;;;;8.68;7.40;;;21.70;72.40;;;;;;5072018;28;20040;-68
2023/04/09 12:36:06;;;;;;;8.43;7.63;;;21.00;73.00;;;;;;5072529;28;20052;-67
2023/04/09 12:38:34;;;;;;;8.35;7.50;;;20.30;72.80;;;;;;5071525;28;20109;-67
2023/04/09 12:41:01;;;;;;;9.20;8.25;;;20.10;73.90;;;;;;5069761;28;20475;-66
2023/04/09 12:43:28;;;;;;;9.15;8.23;;;20.10;74.40;;;;;;5069400;28;20449;-67
2023/04/09 12:45:56;;;;;;;9.65;8.65;;;20.00;74.60;;;;;;5071058;28;20487;-67
2023/04/09 12:48:24;;;;;;;9.82;8.38;;;19.90;75.10;;;;;;5069615;28;20149;-66
2023/04/09 12:50:51;;;;;;;9.10;8.18;;;20.00;75.70;;;;;;5070884;28;20060;-66
2023/04/09 12:53:18;;;;;;;9.85;8.85;;;20.00;75.20;;;;;;5071240;28;20045;-66